Maxwell AFB, Alabama
Current Conditions -  °F | °C
As of 12:58 PM on Friday 21 Nov 2014 (Local Time) from KMXF Reporting Station
Clear Clear  
Wind Chill: 67°   Ceiling: Unl
Heat Index: 67°   Visibility: 10mi
Dew Point: 45°   Wind: 3mph
Humidity: 45%   Direction: NA
Pressure: 30.32"   Gusts: NA
Location:  32.3797°N, 86.3233°W
Report Text: KMXF 211858Z AUTO VRB03KT 10SM CLR 19/07 A3032 RMK AO2 SLP270 T01940071
Loading
Personal Weather Stations






























Interactive Weather Map New forecast layout! Learn more

10-Day Weather Forecast

Advertisements
Track Severe Weather on mobile